createdAt,value
2018-02-21T00:00:21.378Z,61.60
2018-02-21T00:02:48.263Z,56.83
2018-02-21T00:05:14.084Z,57.65
2018-02-21T00:07:39.957Z,54.30
2018-02-21T00:10:05.759Z,68.03
2018-02-21T00:12:31.551Z,73.13
2018-02-21T00:14:57.378Z,61.93
2018-02-21T00:17:23.162Z,64.13
2018-02-21T00:19:50.570Z,60.80
2018-02-21T00:22:16.404Z,64.60
2018-02-21T00:24:42.273Z,54.13
2018-02-21T00:27:08.063Z,59.80
2018-02-21T00:29:33.882Z,57.50
2018-02-21T00:31:59.695Z,71.47
2018-02-21T00:34:25.492Z,58.00
2018-02-21T00:36:51.334Z,65.97
2018-02-21T00:39:17.166Z,70.03
2018-02-21T00:41:44.687Z,61.63
2018-02-21T00:44:10.783Z,64.97
2018-02-21T00:46:36.577Z,54.17
2018-02-21T00:49:02.382Z,61.23
2018-02-21T00:51:28.703Z,58.77
2018-02-21T00:53:54.548Z,81.90
2018-02-21T00:56:20.356Z,63.53
2018-02-21T00:58:46.168Z,65.57
2018-02-21T01:01:12.267Z,68.77
2018-02-21T01:03:45.150Z,63.65
2018-02-21T01:06:10.979Z,59.75
2018-02-21T01:08:36.779Z,61.07
2018-02-21T01:11:02.556Z,53.60
2018-02-21T01:13:28.722Z,55.03
2018-02-21T01:15:54.507Z,66.00
2018-02-21T01:18:20.289Z,63.97
2018-02-21T01:20:46.099Z,76.70
2018-02-21T01:23:11.879Z,137.23
2018-02-21T01:25:37.692Z,88.87
2018-02-21T01:28:03.482Z,216.93
2018-02-21T01:30:29.263Z,117.73
2018-02-21T01:32:55.064Z,123.83
2018-02-21T01:35:21.087Z,107.77
2018-02-21T01:37:46.881Z,55.00
2018-02-21T01:40:12.659Z,67.67
2018-02-21T01:42:38.484Z,104.27
2018-02-21T01:45:04.282Z,58.70
2018-02-21T01:47:30.054Z,68.83
2018-02-21T01:49:55.874Z,59.20
2018-02-21T01:52:21.656Z,84.27
2018-02-21T01:54:47.439Z,71.53
2018-02-21T01:57:13.268Z,61.07
2018-02-21T01:59:39.047Z,58.17
2018-02-21T02:02:04.813Z,77.97
2018-02-21T02:04:30.591Z,63.03
2018-02-21T02:06:56.397Z,58.20
2018-02-21T02:09:22.183Z,58.37
2018-02-21T02:11:47.958Z,67.87
2018-02-21T02:14:13.743Z,57.77
2018-02-21T02:16:39.536Z,66.23
2018-02-21T02:19:05.323Z,57.13
2018-02-21T02:21:31.390Z,65.73
2018-02-21T02:23:57.186Z,66.47
2018-02-21T02:26:22.961Z,48.57
2018-02-21T02:28:48.762Z,59.27
2018-02-21T02:31:14.535Z,62.60
2018-02-21T02:33:40.298Z,61.60
2018-02-21T02:36:06.072Z,57.17
2018-02-21T02:38:40.122Z,58.10
2018-02-21T02:41:05.918Z,54.08
2018-02-21T02:43:31.691Z,62.53
2018-02-21T02:45:57.483Z,59.77
2018-02-21T02:48:23.272Z,55.30
2018-02-21T02:50:49.067Z,56.67
2018-02-21T02:53:14.858Z,56.87
2018-02-21T02:55:40.642Z,55.30
2018-02-21T02:58:06.431Z,52.90
2018-02-21T03:00:32.214Z,59.57
2018-02-21T03:02:58.071Z,64.37
2018-02-21T03:05:23.862Z,52.90
2018-02-21T03:07:49.639Z,55.60
2018-02-21T03:10:15.410Z,57.87
2018-02-21T03:12:41.293Z,53.67
2018-02-21T03:15:07.069Z,57.33
2018-02-21T03:17:32.862Z,55.00
2018-02-21T03:19:58.655Z,58.97
2018-02-21T03:22:24.442Z,57.63
2018-02-21T03:24:50.211Z,53.30
2018-02-21T03:27:16.090Z,53.07
2018-02-21T03:29:41.875Z,52.20
2018-02-21T03:32:07.676Z,67.00
2018-02-21T03:34:33.490Z,55.87
2018-02-21T03:36:59.275Z,55.83
2018-02-21T03:39:25.050Z,57.67
2018-02-21T03:41:50.850Z,51.73
2018-02-21T03:44:16.639Z,50.27
2018-02-21T03:46:42.418Z,51.53
2018-02-21T03:49:08.215Z,57.40
2018-02-21T03:51:33.982Z,59.43
2018-02-21T03:53:59.759Z,54.10
2018-02-21T03:56:25.559Z,48.83
2018-02-21T03:58:51.330Z,61.80
2018-02-21T04:01:17.116Z,59.63
2018-02-21T04:03:43.173Z,49.93
2018-02-21T04:06:08.971Z,49.58
2018-02-21T04:08:34.739Z,56.20
2018-02-21T04:11:00.545Z,53.43
2018-02-21T04:13:26.338Z,53.67
2018-02-21T04:15:52.116Z,56.43
2018-02-21T04:18:17.909Z,58.30
2018-02-21T04:20:43.699Z,57.47
2018-02-21T04:23:09.467Z,53.87
2018-02-21T04:25:35.270Z,56.33
2018-02-21T04:28:01.055Z,50.67
2018-02-21T04:30:26.840Z,57.43
2018-02-21T04:32:52.678Z,54.87
2018-02-21T04:35:18.454Z,60.27
2018-02-21T04:37:44.251Z,67.53
2018-02-21T04:40:10.067Z,53.87
2018-02-21T04:42:35.856Z,48.40
2018-02-21T04:45:01.660Z,53.43
2018-02-21T04:47:27.455Z,60.57
2018-02-21T04:49:53.237Z,56.77
2018-02-21T04:52:19.020Z,54.70
2018-02-21T04:57:52.591Z,53.72
2018-02-21T05:00:18.420Z,61.50
2018-02-21T05:02:44.223Z,52.80
2018-02-21T05:05:10.012Z,52.23
2018-02-21T05:07:35.870Z,50.07
2018-02-21T05:10:01.666Z,54.30
2018-02-21T05:12:27.430Z,52.50
2018-02-21T05:14:53.222Z,55.77
2018-02-21T05:17:19.001Z,58.53
2018-02-21T05:19:44.788Z,58.60
2018-02-21T05:22:10.595Z,49.63
2018-02-21T05:24:36.375Z,56.90
2018-02-21T05:27:02.229Z,53.27
2018-02-21T05:29:28.011Z,58.50
2018-02-21T05:31:53.826Z,53.57
2018-02-21T05:34:19.606Z,56.37
2018-02-21T05:36:45.386Z,56.90
2018-02-21T05:39:11.184Z,51.00
2018-02-21T05:41:36.966Z,55.97
2018-02-21T05:44:02.812Z,54.20
2018-02-21T05:46:28.605Z,56.83
2018-02-21T05:48:54.377Z,56.93
2018-02-21T05:51:20.171Z,56.57
2018-02-21T05:53:45.974Z,52.57
2018-02-21T05:56:11.747Z,46.13
2018-02-21T05:58:37.518Z,58.77
2018-02-21T06:01:03.301Z,51.63
2018-02-21T06:03:29.074Z,55.40
2018-02-21T06:05:54.879Z,51.43
2018-02-21T06:08:20.663Z,60.43
2018-02-21T06:13:37.399Z,84.60
2018-02-21T06:16:03.198Z,116.20
2018-02-21T06:18:28.980Z,116.67
2018-02-21T06:20:54.876Z,117.77
2018-02-21T06:23:20.676Z,179.97
2018-02-21T06:25:46.458Z,138.47
2018-02-21T06:28:12.285Z,251.87
2018-02-21T06:30:38.072Z,240.00
2018-02-21T06:33:03.857Z,291.60
2018-02-21T06:35:29.676Z,273.57
2018-02-21T06:37:55.476Z,127.60
2018-02-21T06:40:21.259Z,127.13
2018-02-21T06:42:47.068Z,138.77
2018-02-21T06:45:12.850Z,391.30
2018-02-21T06:47:38.634Z,307.47
2018-02-21T06:50:11.534Z,55.97
2018-02-21T06:52:37.314Z,51.92
2018-02-21T06:55:03.106Z,52.93
2018-02-21T06:57:28.922Z,54.93
2018-02-21T06:59:54.730Z,50.80
2018-02-21T07:02:32.918Z,52.77
2018-02-21T07:04:58.730Z,60.05
2018-02-21T07:07:24.546Z,63.97
2018-02-21T07:09:50.333Z,61.90
2018-02-21T07:12:16.101Z,62.27
2018-02-21T07:14:41.882Z,62.00
2018-02-21T07:17:07.883Z,59.53
2018-02-21T07:19:33.662Z,57.75
2018-02-21T07:21:59.442Z,62.77
2018-02-21T07:24:25.214Z,66.73
2018-02-21T07:26:50.995Z,69.80
2018-02-21T07:29:16.969Z,62.10
2018-02-21T07:31:42.749Z,64.03
2018-02-21T07:34:08.534Z,64.13
2018-02-21T07:36:34.340Z,61.23
2018-02-21T07:39:00.124Z,66.90
2018-02-21T07:41:25.913Z,81.60
2018-02-21T07:43:51.706Z,69.10
2018-02-21T07:46:17.498Z,70.27
2018-02-21T07:48:43.270Z,73.13
2018-02-21T07:51:09.334Z,61.57
2018-02-21T07:53:35.134Z,61.55
2018-02-21T07:56:00.902Z,62.83
2018-02-21T07:58:26.686Z,60.20
2018-02-21T08:00:52.486Z,67.33
2018-02-21T08:03:18.263Z,64.97
2018-02-21T08:05:44.345Z,59.27
2018-02-21T08:08:10.120Z,66.70
2018-02-21T08:10:35.908Z,63.37
2018-02-21T08:13:01.719Z,59.13
2018-02-21T08:15:27.621Z,64.00
2018-02-21T08:17:53.416Z,56.70
2018-02-21T08:20:19.198Z,59.93
2018-02-21T08:22:44.990Z,62.23
2018-02-21T08:25:10.784Z,59.97
2018-02-21T08:27:36.859Z,68.17
2018-02-21T08:30:02.824Z,56.53
2018-02-21T08:32:28.635Z,70.37
2018-02-21T08:34:54.455Z,62.33
2018-02-21T08:37:20.250Z,65.03
2018-02-21T08:39:46.039Z,68.10
2018-02-21T08:42:12.090Z,67.43
2018-02-21T08:44:37.880Z,52.88
2018-02-21T08:47:03.670Z,50.00
2018-02-21T08:49:29.469Z,60.43
2018-02-21T08:51:55.276Z,53.43
2018-02-21T08:54:21.134Z,54.90
2018-02-21T08:56:46.940Z,46.67
2018-02-21T08:59:12.743Z,52.93
2018-02-21T09:01:38.542Z,48.83
2018-02-21T09:04:04.373Z,64.33
2018-02-21T09:06:30.599Z,48.00
2018-02-21T09:08:56.487Z,47.00
2018-02-21T09:11:22.296Z,50.43
2018-02-21T09:13:48.141Z,51.80
2018-02-21T09:16:13.962Z,49.13
2018-02-21T09:18:40.736Z,46.13
2018-02-21T09:21:07.386Z,51.13
2018-02-21T09:23:33.193Z,54.80
2018-02-21T09:25:58.977Z,39.30
2018-02-21T09:28:24.787Z,40.10
2018-02-21T09:30:50.580Z,39.47
2018-02-21T09:33:16.380Z,42.80
2018-02-21T09:35:42.495Z,37.63
2018-02-21T09:38:08.282Z,45.60
2018-02-21T09:40:34.063Z,38.37
2018-02-21T09:42:59.879Z,38.47
2018-02-21T09:45:26.605Z,33.83
2018-02-21T09:47:52.602Z,35.22
2018-02-21T09:50:18.403Z,32.35
2018-02-21T09:52:44.203Z,35.10
2018-02-21T09:55:10.269Z,33.33
2018-02-21T09:57:36.259Z,38.75
2018-02-21T10:00:02.104Z,35.73
2018-02-21T10:02:27.905Z,40.70
2018-02-21T10:04:53.695Z,31.30
2018-02-21T10:07:19.487Z,33.10
2018-02-21T10:09:45.311Z,34.20
2018-02-21T10:12:11.098Z,29.00
2018-02-21T10:14:36.869Z,28.47
2018-02-21T10:17:02.927Z,45.43
2018-02-21T10:19:28.709Z,28.20
2018-02-21T10:21:54.503Z,34.03
2018-02-21T10:24:20.282Z,28.30
2018-02-21T10:26:46.063Z,40.97
2018-02-21T10:29:11.857Z,39.10
2018-02-21T10:31:37.674Z,34.10
2018-02-21T10:34:03.466Z,37.03
2018-02-21T10:36:29.233Z,36.67
2018-02-21T10:38:55.011Z,25.30
2018-02-21T10:41:20.793Z,58.13
2018-02-21T10:43:46.695Z,34.30
2018-02-21T10:46:12.513Z,25.00
2018-02-21T10:48:38.308Z,26.67
2018-02-21T10:51:04.389Z,28.77
2018-02-21T10:53:30.197Z,33.00
2018-02-21T10:55:55.986Z,31.83
2018-02-21T10:58:21.794Z,37.13
2018-02-21T11:03:42.443Z,23.17
2018-02-21T11:06:08.223Z,25.20
2018-02-21T11:08:34.031Z,29.87
2018-02-21T11:11:01.041Z,25.73
2018-02-21T11:13:26.891Z,23.95
2018-02-21T11:15:52.678Z,27.40
2018-02-21T11:18:18.478Z,23.67
2018-02-21T11:20:44.307Z,30.40
2018-02-21T11:23:10.099Z,29.50
2018-02-21T11:25:36.203Z,28.30
2018-02-21T11:28:02.799Z,30.75
2018-02-21T11:30:28.596Z,29.67
2018-02-21T11:32:54.394Z,27.27
2018-02-21T11:35:20.659Z,28.03
2018-02-21T11:37:46.467Z,33.75
2018-02-21T11:40:12.260Z,29.30
2018-02-21T11:42:38.086Z,37.37
2018-02-21T11:45:03.904Z,29.17
2018-02-21T11:47:29.852Z,28.80
2018-02-21T11:49:56.386Z,28.90
2018-02-21T11:52:22.187Z,42.08
2018-02-21T11:54:47.979Z,160.07
2018-02-21T11:57:13.822Z,135.00
2018-02-21T11:59:39.634Z,79.87
2018-02-21T12:02:05.428Z,61.57
2018-02-21T12:04:31.501Z,71.83
2018-02-21T12:06:57.594Z,46.83
2018-02-21T12:09:23.383Z,32.25
2018-02-21T12:11:49.175Z,55.40
2018-02-21T12:14:15.671Z,75.43
2018-02-21T12:16:41.495Z,95.90
2018-02-21T12:19:07.320Z,141.53
2018-02-21T12:21:33.348Z,73.43
2018-02-21T12:23:59.158Z,51.20
2018-02-21T12:26:24.950Z,32.73
2018-02-21T12:28:51.117Z,40.90
2018-02-21T12:31:16.959Z,47.00
2018-02-21T12:33:42.754Z,65.40
2018-02-21T12:36:08.572Z,71.37
2018-02-21T12:38:34.442Z,60.70
2018-02-21T12:41:06.334Z,89.13
2018-02-21T12:43:32.154Z,63.90
2018-02-21T12:45:58.193Z,88.93
2018-02-21T12:48:23.996Z,63.90
2018-02-21T12:50:49.762Z,58.17
2018-02-21T12:53:15.960Z,44.20
2018-02-21T12:55:41.738Z,65.43
2018-02-21T12:58:07.525Z,53.77
2018-02-21T13:00:33.332Z,72.97
2018-02-21T13:02:59.107Z,57.70
2018-02-21T13:05:24.887Z,53.40
2018-02-21T13:07:50.718Z,44.90
2018-02-21T13:10:16.491Z,61.10
2018-02-21T13:12:42.279Z,31.63
2018-02-21T13:15:08.087Z,26.40
2018-02-21T13:17:33.867Z,29.37
2018-02-21T13:19:59.639Z,37.27
2018-02-21T13:22:25.776Z,29.53
2018-02-21T13:24:51.557Z,31.40
2018-02-21T13:27:17.344Z,37.87
2018-02-21T13:29:43.429Z,33.57
2018-02-21T13:32:09.224Z,33.33
2018-02-21T13:34:34.997Z,35.23
2018-02-21T13:37:01.045Z,56.80
2018-02-21T13:39:26.793Z,104.63
2018-02-21T13:41:52.571Z,56.60
2018-02-21T13:44:18.364Z,48.23
2018-02-21T13:46:44.166Z,43.77
2018-02-21T13:49:09.966Z,71.40
2018-02-21T13:51:35.754Z,47.40
2018-02-21T13:54:01.531Z,38.03
2018-02-21T13:56:27.540Z,31.77
2018-02-21T13:58:53.309Z,35.22
2018-02-21T14:01:19.078Z,43.67
2018-02-21T14:03:44.859Z,27.50
2018-02-21T14:06:10.647Z,35.40
2018-02-21T14:08:43.280Z,36.00
2018-02-21T14:11:09.082Z,43.60
2018-02-21T14:13:34.869Z,45.80
2018-02-21T14:16:00.644Z,41.93
2018-02-21T14:18:26.451Z,63.87
2018-02-21T14:20:52.248Z,36.17
2018-02-21T14:23:18.025Z,43.20
2018-02-21T14:25:43.829Z,32.70
2018-02-21T14:28:09.610Z,40.93
2018-02-21T14:30:35.398Z,62.23
2018-02-21T14:33:01.184Z,40.50
2018-02-21T14:35:26.966Z,45.67
2018-02-21T14:37:52.739Z,43.10
2018-02-21T14:40:18.579Z,35.13
2018-02-21T14:42:44.421Z,55.77
2018-02-21T14:45:10.176Z,60.77
2018-02-21T14:47:35.966Z,42.07
2018-02-21T14:50:01.738Z,51.97
2018-02-21T14:52:27.516Z,35.47
2018-02-21T14:54:53.327Z,370.80
2018-02-21T14:57:19.104Z,176.87
2018-02-21T14:59:44.891Z,260.97
2018-02-21T15:02:10.708Z,248.20
2018-02-21T15:04:36.492Z,108.80
2018-02-21T15:07:02.287Z,26.67
2018-02-21T15:09:28.082Z,52.63
2018-02-21T15:11:53.857Z,54.93
2018-02-21T15:14:19.647Z,46.97
2018-02-21T15:16:45.426Z,49.03
2018-02-21T15:19:11.259Z,43.67
2018-02-21T15:21:37.047Z,36.10
2018-02-21T15:24:02.839Z,31.80
2018-02-21T15:26:28.956Z,26.10
2018-02-21T15:28:54.751Z,25.98
2018-02-21T15:31:20.539Z,33.13
2018-02-21T15:33:46.332Z,29.13
2018-02-21T15:36:12.127Z,29.93
2018-02-21T15:38:37.946Z,32.17
2018-02-21T15:41:03.729Z,30.37
2018-02-21T15:43:29.510Z,28.40
2018-02-21T15:45:55.315Z,27.50
2018-02-21T15:48:21.128Z,28.50
2018-02-21T15:50:46.913Z,28.00
2018-02-21T15:53:12.700Z,26.37
2018-02-21T15:55:38.498Z,26.50
2018-02-21T15:58:04.274Z,28.90
2018-02-21T16:00:30.089Z,24.90
2018-02-21T16:02:55.924Z,28.07
2018-02-21T16:05:21.719Z,22.23
2018-02-21T16:07:47.526Z,43.63
2018-02-21T16:10:13.307Z,33.47
2018-02-21T16:12:39.087Z,44.07
2018-02-21T16:15:05.127Z,38.60
2018-02-21T16:17:30.923Z,40.10
2018-02-21T16:19:56.702Z,48.93
2018-02-21T16:22:22.484Z,42.90
2018-02-21T16:24:48.295Z,49.17
2018-02-21T16:27:14.100Z,38.67
2018-02-21T16:29:39.892Z,41.00
2018-02-21T16:32:05.666Z,32.27
2018-02-21T16:34:31.469Z,34.30
2018-02-21T16:36:57.307Z,29.40
2018-02-21T16:39:23.081Z,26.17
2018-02-21T16:41:48.867Z,236.23
2018-02-21T16:44:14.937Z,302.00
2018-02-21T16:46:40.731Z,195.48
2018-02-21T16:49:06.522Z,606.23
2018-02-21T16:51:32.332Z,652.90
2018-02-21T16:54:04.358Z,113.10
2018-02-21T16:56:30.141Z,92.68
2018-02-21T16:58:55.921Z,216.30
2018-02-21T17:01:21.734Z,150.47
2018-02-21T17:03:47.502Z,83.77
2018-02-21T17:06:13.308Z,85.63
2018-02-21T17:08:39.097Z,47.67
2018-02-21T17:11:05.196Z,29.90
2018-02-21T17:13:30.987Z,29.05
2018-02-21T17:15:56.784Z,31.33
2018-02-21T17:18:22.574Z,34.40
2018-02-21T17:20:48.661Z,32.70
2018-02-21T17:23:14.445Z,36.15
2018-02-21T17:25:40.230Z,43.50
2018-02-21T17:28:06.021Z,36.43
2018-02-21T17:30:31.814Z,32.93
2018-02-21T17:32:57.607Z,43.80
2018-02-21T17:35:23.440Z,47.20
2018-02-21T17:37:49.292Z,40.20
2018-02-21T17:40:15.545Z,45.90
2018-02-21T17:42:41.370Z,36.20
2018-02-21T17:45:07.211Z,41.17
2018-02-21T17:47:33.020Z,41.03
2018-02-21T17:49:59.400Z,78.03
2018-02-21T17:52:25.220Z,78.57
2018-02-21T17:54:52.585Z,68.53
2018-02-21T17:57:18.403Z,69.57
2018-02-21T17:59:44.227Z,63.93
2018-02-21T18:02:10.258Z,53.07
2018-02-21T18:04:36.116Z,53.00
2018-02-21T18:07:02.803Z,57.37
2018-02-21T18:09:28.592Z,59.38
2018-02-21T18:11:54.505Z,40.57
2018-02-21T18:14:20.313Z,56.23
2018-02-21T18:16:46.127Z,54.17
2018-02-21T18:19:11.951Z,51.13
2018-02-21T18:21:43.875Z,45.90
2018-02-21T18:24:09.678Z,41.10
2018-02-21T18:26:35.523Z,42.87
2018-02-21T18:29:01.343Z,45.80
2018-02-21T18:31:27.189Z,43.27
2018-02-21T18:33:54.772Z,43.20
2018-02-21T18:36:20.575Z,42.80
2018-02-21T18:38:46.350Z,39.07
2018-02-21T18:41:12.182Z,41.60
2018-02-21T18:43:38.010Z,40.97
2018-02-21T18:46:04.432Z,52.73
2018-02-21T18:48:30.617Z,47.92
2018-02-21T18:50:57.590Z,42.62
2018-02-21T18:53:23.395Z,50.38
2018-02-21T18:55:49.202Z,49.07
2018-02-21T18:58:16.278Z,54.77
2018-02-21T19:00:42.143Z,45.28
2018-02-21T19:03:07.936Z,48.90
2018-02-21T19:05:33.759Z,51.50
2018-02-21T19:07:59.577Z,45.30
2018-02-21T19:10:25.372Z,47.70
2018-02-21T19:12:51.279Z,48.60
2018-02-21T19:15:17.100Z,51.40
2018-02-21T19:17:42.898Z,51.73
2018-02-21T19:20:08.780Z,53.13
2018-02-21T19:22:34.571Z,53.40
2018-02-21T19:25:00.353Z,49.47
2018-02-21T19:27:26.730Z,49.13
2018-02-21T19:29:52.544Z,51.97
2018-02-21T19:32:18.395Z,44.50
2018-02-21T19:34:44.216Z,48.73
2018-02-21T19:37:10.056Z,50.47
2018-02-21T19:39:36.177Z,58.10
2018-02-21T19:42:01.946Z,49.08
2018-02-21T19:44:27.737Z,56.50
2018-02-21T19:46:53.580Z,63.43
2018-02-21T19:49:19.414Z,60.70
2018-02-21T19:51:45.226Z,59.53
2018-02-21T19:54:11.025Z,56.33
2018-02-21T19:56:37.642Z,62.07
2018-02-21T19:59:03.826Z,56.55
2018-02-21T20:01:29.634Z,65.68
2018-02-21T20:03:55.431Z,55.40
2018-02-21T20:06:21.229Z,63.47
2018-02-21T20:08:47.549Z,62.53
2018-02-21T20:11:13.359Z,61.85
2018-02-21T20:13:40.151Z,57.33
2018-02-21T20:16:05.940Z,61.35
2018-02-21T20:18:31.731Z,64.83
2018-02-21T20:20:57.525Z,57.73
2018-02-21T20:23:23.374Z,71.00
2018-02-21T20:25:49.162Z,59.20
2018-02-21T20:28:14.964Z,63.53
2018-02-21T20:30:42.474Z,65.43
2018-02-21T20:33:09.822Z,66.78
2018-02-21T20:35:35.625Z,64.75
2018-02-21T20:38:01.648Z,67.50
2018-02-21T20:40:27.459Z,62.45
2018-02-21T20:42:53.280Z,60.60
2018-02-21T20:45:19.127Z,72.37
2018-02-21T20:47:44.971Z,64.30
2018-02-21T20:50:10.783Z,69.40
2018-02-21T20:52:36.595Z,63.67
2018-02-21T20:55:02.467Z,63.33
2018-02-21T20:57:28.267Z,75.33
2018-02-21T20:59:54.096Z,62.20
2018-02-21T21:02:20.492Z,67.77
2018-02-21T21:04:46.475Z,62.22
2018-02-21T21:07:12.299Z,69.43
2018-02-21T21:09:38.104Z,65.30
2018-02-21T21:12:03.910Z,70.23
2018-02-21T21:14:29.729Z,76.20
2018-02-21T21:16:55.541Z,71.93
2018-02-21T21:19:22.035Z,69.63
2018-02-21T21:21:47.861Z,60.92
2018-02-21T21:24:13.659Z,62.23
2018-02-21T21:26:39.472Z,60.50
2018-02-21T21:29:05.316Z,61.83
2018-02-21T21:31:31.122Z,60.90
2018-02-21T21:33:56.941Z,59.77
2018-02-21T21:36:22.744Z,54.83
2018-02-21T21:38:48.539Z,64.57
2018-02-21T21:41:14.358Z,61.50
2018-02-21T21:43:40.183Z,63.10
2018-02-21T21:46:05.996Z,65.83
2018-02-21T21:48:31.820Z,65.37
2018-02-21T21:50:57.631Z,68.50
2018-02-21T21:53:23.436Z,65.30
2018-02-21T21:55:49.372Z,65.40
2018-02-21T21:58:15.158Z,63.77
2018-02-21T22:00:40.992Z,62.60
2018-02-21T22:03:06.811Z,66.37
2018-02-21T22:05:32.622Z,70.00
2018-02-21T22:07:58.516Z,62.80
2018-02-21T22:10:24.294Z,60.60
2018-02-21T22:12:50.079Z,76.33
2018-02-21T22:15:15.914Z,61.73
2018-02-21T22:17:41.702Z,71.70
2018-02-21T22:20:14.637Z,70.60
2018-02-21T22:22:40.466Z,75.97
2018-02-21T22:25:06.907Z,66.40
2018-02-21T22:27:32.727Z,61.90
2018-02-21T22:29:58.642Z,68.43
2018-02-21T22:32:25.027Z,69.37
2018-02-21T22:34:51.270Z,67.05
2018-02-21T22:37:17.052Z,79.03
2018-02-21T22:39:42.836Z,76.63
2018-02-21T22:42:09.441Z,78.27
2018-02-21T22:44:35.873Z,77.25
2018-02-21T22:47:01.723Z,76.12
2018-02-21T22:49:28.063Z,76.60
2018-02-21T22:51:54.169Z,74.10
2018-02-21T22:54:20.082Z,77.18
2018-02-21T22:56:45.890Z,76.07
2018-02-21T22:59:12.532Z,77.57
2018-02-21T23:01:38.487Z,68.47
2018-02-21T23:04:04.305Z,72.47
2018-02-21T23:06:30.499Z,77.10
2018-02-21T23:08:56.331Z,72.85
2018-02-21T23:11:22.136Z,75.33
2018-02-21T23:13:48.250Z,82.73
2018-02-21T23:16:14.069Z,71.43
2018-02-21T23:18:39.873Z,72.67
2018-02-21T23:21:05.666Z,80.53
2018-02-21T23:23:31.462Z,86.37
2018-02-21T23:25:57.546Z,72.13
2018-02-21T23:28:23.362Z,70.65
2018-02-21T23:30:49.119Z,80.50
2018-02-21T23:33:14.911Z,81.20
2018-02-21T23:35:40.682Z,78.40
2018-02-21T23:38:06.458Z,76.67
2018-02-21T23:40:32.246Z,73.17
2018-02-21T23:42:58.017Z,81.07
2018-02-21T23:45:23.811Z,79.77
2018-02-21T23:47:49.610Z,70.80
2018-02-21T23:50:15.395Z,72.10
2018-02-21T23:52:41.173Z,69.17
2018-02-21T23:55:06.994Z,66.87
2018-02-21T23:57:32.782Z,72.37
2018-02-21T23:59:58.549Z,77.17
